Kilcolgan, Ireland
Current Conditions -  °F | °C
As of 11:00 AM on Saturday 25 Oct 2014 (Local Time) from EINN Reporting Station
Broken Clouds Broken Clouds  
Wind Chill: 13°   Ceiling: 3800
Heat Index: 13°   Visibility: 6mi
Dew Point:   Wind: 22mph
Humidity: 72%   Direction: 230°SW
Pressure: 29.88"   Gusts: NA
Location:  53.2°N, 8.87°W
Report Text: EINN 251100Z 23019KT 9999 FEW016 BKN038 13/08 Q1012 NOSIG
Loading
Personal Weather Stations






























Interactive Weather Map
Tropical Storm Tracking
New forecast layout! Learn more

10-Day Weather Forecast

Advertisements
Track Severe Weather on mobile